Augsburg, Illinois
Current Conditions -  °F | °C
As of 10:15 AM on Friday 24 Oct 2014 (Local Time) from KSLO Reporting Station
Clear Clear  
Wind Chill: 61°   Ceiling: Unl
Heat Index: 61°   Visibility: 10mi
Dew Point: 55°   Wind: 3mph
Humidity: 80%   Direction: 260°W
Pressure: 30.12"   Gusts: NA
Location:  38.8463°N, 89.0894°W
Report Text: KSLO 241515Z AUTO 26003KT 10SM CLR 16/13 A3012 RMK AO2 T01630128
Loading
Personal Weather Stations






























Interactive Weather Map
Tropical Storm Tracking
New forecast layout! Learn more

10-Day Weather Forecast

Advertisements
Track Severe Weather on mobile